createdAt,value
2017-07-26T00:02:20.908Z,96.56
2017-07-26T00:04:48.633Z,96.59
2017-07-26T00:07:16.325Z,96.62
2017-07-26T00:09:44.137Z,96.67
2017-07-26T00:12:11.897Z,96.70
2017-07-26T00:14:39.724Z,96.74
2017-07-26T00:17:07.497Z,96.72
2017-07-26T00:19:35.315Z,96.70
2017-07-26T00:22:03.084Z,96.72
2017-07-26T00:24:30.896Z,96.74
2017-07-26T00:26:58.663Z,96.72
2017-07-26T00:29:26.423Z,96.68
2017-07-26T00:31:54.284Z,96.57
2017-07-26T00:34:22.090Z,96.61
2017-07-26T00:36:49.905Z,96.62
2017-07-26T00:39:17.680Z,96.65
2017-07-26T00:41:45.484Z,96.67
2017-07-26T00:44:13.251Z,96.66
2017-07-26T00:46:41.089Z,96.62
2017-07-26T00:49:08.876Z,96.65
2017-07-26T00:51:36.708Z,96.62
2017-07-26T00:54:04.423Z,96.65
2017-07-26T00:56:32.123Z,96.68
2017-07-26T00:58:59.953Z,96.70
2017-07-26T01:01:27.721Z,96.73
2017-07-26T01:03:55.575Z,96.78
2017-07-26T01:06:23.382Z,96.80
2017-07-26T01:08:51.208Z,96.85
2017-07-26T01:11:18.981Z,96.83
2017-07-26T01:13:46.825Z,96.82
2017-07-26T01:16:14.584Z,96.80
2017-07-26T01:18:47.750Z,96.81
2017-07-26T01:21:15.550Z,96.79
2017-07-26T01:23:43.355Z,96.84
2017-07-26T01:26:11.198Z,96.83
2017-07-26T01:28:38.984Z,96.85
2017-07-26T01:31:06.874Z,96.86
2017-07-26T01:33:34.672Z,96.84
2017-07-26T01:36:02.554Z,96.87
2017-07-26T01:38:30.336Z,96.89
2017-07-26T01:40:58.207Z,96.91
2017-07-26T01:43:25.996Z,96.88
2017-07-26T01:45:53.807Z,96.86
2017-07-26T01:48:21.635Z,96.86
2017-07-26T01:50:49.341Z,96.87
2017-07-26T01:53:17.184Z,96.89
2017-07-26T01:55:44.984Z,96.90
2017-07-26T01:58:12.852Z,96.85
2017-07-26T02:00:40.611Z,96.86
2017-07-26T02:03:08.451Z,96.86
2017-07-26T02:05:36.242Z,96.81
2017-07-26T02:08:04.023Z,96.80
2017-07-26T02:10:31.860Z,96.81
2017-07-26T02:12:59.656Z,96.81
2017-07-26T02:15:27.521Z,96.81
2017-07-26T02:17:55.221Z,96.80
2017-07-26T02:20:23.059Z,96.82
2017-07-26T02:22:50.857Z,96.85
2017-07-26T02:25:18.640Z,96.88
2017-07-26T02:27:46.478Z,96.90
2017-07-26T02:30:14.239Z,96.90
2017-07-26T02:32:42.096Z,96.89
2017-07-26T02:35:09.886Z,96.88
2017-07-26T02:37:37.709Z,96.88
2017-07-26T02:40:05.474Z,96.87
2017-07-26T02:42:33.264Z,96.88
2017-07-26T02:45:01.101Z,96.91
2017-07-26T02:47:28.911Z,96.92
2017-07-26T02:49:56.646Z,96.92
2017-07-26T02:52:24.432Z,96.95
2017-07-26T02:54:52.261Z,96.95
2017-07-26T02:57:20.023Z,96.94
2017-07-26T02:59:47.800Z,96.93
2017-07-26T03:02:15.632Z,97.00
2017-07-26T03:04:44.414Z,97.00
2017-07-26T03:07:12.259Z,97.01
2017-07-26T03:09:40.048Z,97.02
2017-07-26T03:12:07.870Z,97.00
2017-07-26T03:14:35.673Z,97.00
2017-07-26T03:17:03.529Z,97.00
2017-07-26T03:19:31.209Z,97.01
2017-07-26T03:21:58.979Z,97.01
2017-07-26T03:24:26.796Z,97.04
2017-07-26T03:26:54.604Z,97.05
2017-07-26T03:29:22.381Z,97.05
2017-07-26T03:31:50.203Z,97.06
2017-07-26T03:34:18.055Z,97.07
2017-07-26T03:36:45.875Z,97.06
2017-07-26T03:39:13.612Z,97.07
2017-07-26T03:41:41.331Z,97.08
2017-07-26T03:44:09.027Z,97.11
2017-07-26T03:46:36.930Z,97.14
2017-07-26T03:49:04.721Z,97.13
2017-07-26T03:51:32.549Z,97.11
2017-07-26T03:54:00.316Z,97.08
2017-07-26T03:56:28.150Z,97.08
2017-07-26T03:58:55.912Z,97.08
2017-07-26T04:01:23.744Z,97.06
2017-07-26T04:03:51.534Z,97.06
2017-07-26T04:06:19.323Z,97.10
2017-07-26T04:08:47.139Z,97.13
2017-07-26T04:11:14.941Z,97.13
2017-07-26T04:13:42.769Z,97.12
2017-07-26T04:16:10.556Z,97.10
2017-07-26T04:18:38.386Z,97.12
2017-07-26T04:21:06.169Z,97.13
2017-07-26T04:23:34.012Z,97.15
2017-07-26T04:26:01.810Z,97.16
2017-07-26T04:28:29.571Z,97.16
2017-07-26T04:30:57.457Z,97.17
2017-07-26T04:33:25.159Z,97.19
2017-07-26T04:35:52.998Z,97.19
2017-07-26T04:38:20.786Z,97.19
2017-07-26T04:40:48.597Z,97.20
2017-07-26T04:43:16.386Z,97.19
2017-07-26T04:45:44.111Z,97.19
2017-07-26T04:48:11.816Z,97.19
2017-07-26T04:50:39.506Z,97.14
2017-07-26T04:53:07.238Z,97.13
2017-07-26T04:55:34.931Z,97.14
2017-07-26T04:58:02.711Z,97.12
2017-07-26T05:00:30.412Z,97.12
2017-07-26T05:02:58.159Z,97.10
2017-07-26T05:05:25.859Z,97.13
2017-07-26T05:07:53.572Z,97.13
2017-07-26T05:10:21.361Z,97.04
2017-07-26T05:12:49.123Z,97.02
2017-07-26T05:15:16.817Z,97.02
2017-07-26T05:17:44.571Z,97.04
2017-07-26T05:20:12.297Z,97.04
2017-07-26T05:22:39.992Z,97.03
2017-07-26T05:25:07.739Z,97.00
2017-07-26T05:27:35.456Z,96.99
2017-07-26T05:30:03.194Z,96.99
2017-07-26T05:32:30.883Z,96.93
2017-07-26T05:34:58.626Z,96.88
2017-07-26T05:37:26.354Z,96.88
2017-07-26T05:39:54.145Z,96.78
2017-07-26T05:42:21.859Z,96.73
2017-07-26T05:44:49.563Z,96.70
2017-07-26T05:47:17.332Z,96.70
2017-07-26T05:49:45.023Z,96.61
2017-07-26T05:52:12.807Z,96.53
2017-07-26T05:54:40.519Z,96.51
2017-07-26T05:57:08.276Z,96.45
2017-07-26T05:59:35.982Z,96.44
2017-07-26T06:02:03.743Z,96.38
2017-07-26T06:04:31.500Z,96.31
2017-07-26T06:06:59.262Z,96.29
2017-07-26T06:09:27.005Z,96.17
2017-07-26T06:11:54.733Z,96.15
2017-07-26T06:14:22.486Z,96.16
2017-07-26T06:16:50.193Z,96.10
2017-07-26T06:19:17.925Z,95.90
2017-07-26T06:21:45.640Z,95.86
2017-07-26T06:24:13.458Z,95.74
2017-07-26T06:26:41.164Z,95.73
2017-07-26T06:29:08.928Z,95.68
2017-07-26T06:31:36.655Z,95.55
2017-07-26T06:34:04.393Z,95.37
2017-07-26T06:36:32.121Z,95.47
2017-07-26T06:38:59.797Z,95.39
2017-07-26T06:41:27.555Z,95.27
2017-07-26T06:43:55.390Z,95.22
2017-07-26T06:46:23.164Z,95.09
2017-07-26T06:48:50.870Z,95.09
2017-07-26T06:51:18.648Z,94.88
2017-07-26T06:53:46.331Z,94.52
2017-07-26T06:56:14.115Z,94.63
2017-07-26T06:58:41.824Z,94.59
2017-07-26T07:01:09.538Z,94.42
2017-07-26T07:03:37.291Z,94.04
2017-07-26T07:06:05.028Z,94.04
2017-07-26T07:08:32.886Z,94.23
2017-07-26T07:11:00.613Z,93.96
2017-07-26T07:13:28.357Z,93.93
2017-07-26T07:15:56.170Z,93.88
2017-07-26T07:18:24.070Z,93.00
2017-07-26T07:20:51.884Z,93.36
2017-07-26T07:23:19.724Z,93.18
2017-07-26T07:25:47.518Z,92.55
2017-07-26T07:28:15.313Z,92.90
2017-07-26T07:30:43.069Z,92.87
2017-07-26T07:33:10.820Z,92.67
2017-07-26T07:35:38.655Z,92.27
2017-07-26T07:38:06.444Z,92.06
2017-07-26T07:40:34.317Z,92.30
2017-07-26T07:43:02.107Z,92.07
2017-07-26T07:45:29.881Z,91.68
2017-07-26T07:47:57.672Z,91.99
2017-07-26T07:50:25.908Z,91.87
2017-07-26T07:52:53.695Z,91.87
2017-07-26T07:55:21.491Z,91.58
2017-07-26T07:57:49.328Z,90.60
2017-07-26T08:00:17.226Z,90.19
2017-07-26T08:02:44.955Z,90.58
2017-07-26T08:05:12.700Z,90.05
2017-07-26T08:07:40.441Z,89.81
2017-07-26T08:10:08.175Z,89.21
2017-07-26T08:12:35.887Z,88.08
2017-07-26T08:15:03.650Z,88.00
2017-07-26T08:17:31.433Z,88.56
2017-07-26T08:19:59.270Z,88.40
2017-07-26T08:22:27.056Z,88.11
2017-07-26T08:24:54.914Z,88.22
2017-07-26T08:27:22.742Z,88.38
2017-07-26T08:29:50.572Z,88.06
2017-07-26T08:32:18.311Z,87.26
2017-07-26T08:34:46.061Z,87.46
2017-07-26T08:37:13.772Z,87.16
2017-07-26T08:39:41.530Z,86.42
2017-07-26T08:42:09.246Z,87.17
2017-07-26T08:44:36.941Z,86.59
2017-07-26T08:47:04.789Z,86.58
2017-07-26T08:49:32.590Z,85.62
2017-07-26T08:52:00.448Z,85.00
2017-07-26T08:54:28.252Z,84.22
2017-07-26T08:56:56.020Z,83.89
2017-07-26T08:59:23.753Z,83.55
2017-07-26T09:01:51.624Z,83.30
2017-07-26T09:04:19.423Z,83.05
2017-07-26T09:06:47.224Z,82.41
2017-07-26T09:09:15.051Z,82.47
2017-07-26T09:11:42.882Z,82.79
2017-07-26T09:14:10.761Z,82.94
2017-07-26T09:16:38.557Z,81.55
2017-07-26T09:19:06.389Z,81.47
2017-07-26T09:21:34.175Z,80.86
2017-07-26T09:24:02.080Z,82.16
2017-07-26T09:26:29.877Z,81.16
2017-07-26T09:28:57.638Z,81.01
2017-07-26T09:31:25.368Z,81.00
2017-07-26T09:33:53.088Z,80.96
2017-07-26T09:36:20.848Z,81.31
2017-07-26T09:38:48.525Z,80.72
2017-07-26T09:41:16.272Z,80.17
2017-07-26T09:43:43.976Z,79.95
2017-07-26T09:46:11.692Z,80.51
2017-07-26T09:48:39.369Z,80.98
2017-07-26T09:51:07.136Z,81.54
2017-07-26T09:53:34.823Z,79.68
2017-07-26T09:56:02.568Z,79.54
2017-07-26T09:58:30.255Z,80.02
2017-07-26T10:00:58.084Z,80.20
2017-07-26T10:03:25.936Z,79.83
2017-07-26T10:05:53.663Z,77.82
2017-07-26T10:08:21.427Z,76.89
2017-07-26T10:10:49.210Z,77.27
2017-07-26T10:13:16.951Z,77.47
2017-07-26T10:15:44.731Z,77.10
2017-07-26T10:18:12.564Z,78.13
2017-07-26T10:20:40.369Z,77.44
2017-07-26T10:23:08.250Z,76.08
2017-07-26T10:25:35.953Z,77.45
2017-07-26T10:28:03.753Z,77.91
2017-07-26T10:30:31.516Z,75.79
2017-07-26T10:32:59.349Z,75.76
2017-07-26T10:35:27.109Z,77.04
2017-07-26T10:37:54.806Z,78.05
2017-07-26T10:40:22.535Z,79.12
2017-07-26T10:42:50.215Z,78.02
2017-07-26T10:45:18.043Z,78.42
2017-07-26T10:47:45.864Z,78.93
2017-07-26T10:50:13.710Z,78.98
2017-07-26T10:52:41.440Z,78.62
2017-07-26T10:55:09.150Z,78.78
2017-07-26T10:57:36.984Z,78.50
2017-07-26T11:00:04.763Z,79.32
2017-07-26T11:02:32.529Z,77.70
2017-07-26T11:05:00.312Z,77.87
2017-07-26T11:07:28.179Z,78.60
2017-07-26T11:09:55.974Z,78.07
2017-07-26T11:12:23.740Z,77.85
2017-07-26T11:14:51.525Z,77.01
2017-07-26T11:17:19.380Z,77.11
2017-07-26T11:19:47.090Z,75.95
2017-07-26T11:22:14.798Z,76.42
2017-07-26T11:24:42.633Z,76.27
2017-07-26T11:27:10.425Z,76.33
2017-07-26T11:29:38.410Z,76.04
2017-07-26T11:32:06.118Z,73.98
2017-07-26T11:34:33.951Z,73.54
2017-07-26T11:37:01.666Z,73.13
2017-07-26T11:39:29.521Z,73.77
2017-07-26T11:41:57.302Z,73.01
2017-07-26T11:44:25.135Z,72.69
2017-07-26T11:46:52.854Z,72.30
2017-07-26T11:49:20.660Z,71.79
2017-07-26T11:51:48.396Z,71.11
2017-07-26T11:54:16.218Z,70.74
2017-07-26T11:56:44.085Z,71.13
2017-07-26T11:59:11.941Z,71.45
2017-07-26T12:01:39.783Z,70.95
2017-07-26T12:04:07.493Z,70.83
2017-07-26T12:06:35.270Z,70.70
2017-07-26T12:09:02.999Z,70.46
2017-07-26T12:11:30.793Z,70.56
2017-07-26T12:13:58.496Z,70.73
2017-07-26T12:16:26.207Z,68.89
2017-07-26T12:18:54.002Z,69.46
2017-07-26T12:21:21.871Z,69.49
2017-07-26T12:23:49.768Z,68.90
2017-07-26T12:26:17.470Z,69.59
2017-07-26T12:28:45.395Z,68.91
2017-07-26T12:31:13.258Z,67.81
2017-07-26T12:33:41.253Z,68.53
2017-07-26T12:36:09.190Z,67.52
2017-07-26T12:38:37.141Z,67.14
2017-07-26T12:41:05.043Z,67.17
2017-07-26T12:43:32.922Z,67.79
2017-07-26T12:46:00.879Z,67.15
2017-07-26T12:48:28.711Z,65.78
2017-07-26T12:50:56.588Z,66.26
2017-07-26T12:53:24.479Z,67.17
2017-07-26T12:55:52.387Z,65.38
2017-07-26T12:58:20.121Z,66.97
2017-07-26T13:00:47.988Z,67.26
2017-07-26T13:03:15.838Z,65.18
2017-07-26T13:05:43.695Z,65.56
2017-07-26T13:08:11.644Z,65.46
2017-07-26T13:10:39.478Z,67.05
2017-07-26T13:13:07.223Z,66.33
2017-07-26T13:15:34.963Z,66.07
2017-07-26T13:18:02.721Z,66.07
2017-07-26T13:20:30.488Z,66.66
2017-07-26T13:22:58.261Z,66.50
2017-07-26T13:25:26.101Z,66.91
2017-07-26T13:27:53.846Z,67.75
2017-07-26T13:30:21.572Z,67.95
2017-07-26T13:32:49.299Z,67.04
2017-07-26T13:35:17.151Z,66.15
2017-07-26T13:37:44.849Z,65.84
2017-07-26T13:40:12.778Z,65.77
2017-07-26T13:42:40.697Z,66.44
2017-07-26T13:45:08.646Z,67.06
2017-07-26T13:47:36.505Z,67.51
2017-07-26T13:50:04.232Z,67.32
2017-07-26T13:52:32.185Z,66.23
2017-07-26T13:55:00.019Z,67.25
2017-07-26T13:57:27.752Z,67.58
2017-07-26T13:59:55.611Z,68.27
2017-07-26T14:02:23.622Z,65.24
2017-07-26T14:04:51.387Z,65.78
2017-07-26T14:07:19.316Z,62.23
2017-07-26T14:09:47.141Z,62.29
2017-07-26T14:12:15.062Z,62.50
2017-07-26T14:14:42.827Z,61.81
2017-07-26T14:17:10.707Z,62.02
2017-07-26T14:19:38.628Z,63.67
2017-07-26T14:22:06.454Z,63.38
2017-07-26T14:24:34.420Z,64.86
2017-07-26T14:27:02.289Z,65.38
2017-07-26T14:29:30.197Z,64.66
2017-07-26T14:31:58.147Z,63.85
2017-07-26T14:34:26.049Z,65.17
2017-07-26T14:36:53.887Z,66.07
2017-07-26T14:39:21.809Z,65.44
2017-07-26T14:41:49.561Z,65.01
2017-07-26T14:44:17.277Z,64.80
2017-07-26T14:46:44.999Z,62.86
2017-07-26T14:49:12.692Z,62.92
2017-07-26T14:51:40.438Z,63.03
2017-07-26T14:54:08.170Z,64.42
2017-07-26T14:56:35.931Z,65.20
2017-07-26T14:59:03.661Z,64.53
2017-07-26T15:01:31.507Z,62.65
2017-07-26T15:03:59.370Z,62.12
2017-07-26T15:06:27.143Z,63.56
2017-07-26T15:08:55.021Z,63.92
2017-07-26T15:11:22.884Z,63.98
2017-07-26T15:13:50.829Z,63.00
2017-07-26T15:16:18.639Z,62.64
2017-07-26T15:18:46.580Z,63.71
2017-07-26T15:21:14.430Z,63.98
2017-07-26T15:23:42.320Z,63.03
2017-07-26T15:26:10.237Z,65.28
2017-07-26T15:28:38.095Z,64.23
2017-07-26T15:31:05.987Z,64.95
2017-07-26T15:33:33.864Z,63.38
2017-07-26T15:36:01.827Z,64.01
2017-07-26T15:38:29.757Z,64.05
2017-07-26T15:40:57.660Z,63.31
2017-07-26T15:43:25.515Z,63.20
2017-07-26T15:45:53.430Z,63.29
2017-07-26T15:48:21.270Z,63.26
2017-07-26T15:50:49.176Z,62.82
2017-07-26T15:53:17.001Z,62.44
2017-07-26T15:55:44.846Z,62.42
2017-07-26T15:58:12.598Z,63.40
2017-07-26T16:00:40.424Z,62.32
2017-07-26T16:03:08.375Z,63.26
2017-07-26T16:05:36.185Z,63.60
2017-07-26T16:08:04.144Z,62.67
2017-07-26T16:10:31.989Z,62.22
2017-07-26T16:12:59.768Z,62.20
2017-07-26T16:15:27.742Z,62.80
2017-07-26T16:17:55.599Z,62.27
2017-07-26T16:20:23.435Z,63.49
2017-07-26T16:22:51.304Z,62.62
2017-07-26T16:25:19.249Z,62.89
2017-07-26T16:27:47.039Z,62.62
2017-07-26T16:30:14.867Z,62.68
2017-07-26T16:32:42.753Z,62.57
2017-07-26T16:35:10.664Z,62.97
2017-07-26T16:37:38.417Z,61.89
2017-07-26T16:40:06.313Z,60.88
2017-07-26T16:42:35.176Z,62.02
2017-07-26T16:45:03.020Z,61.36
2017-07-26T16:47:30.902Z,61.96
2017-07-26T16:49:58.814Z,62.85
2017-07-26T16:52:26.494Z,62.47
2017-07-26T16:54:54.388Z,63.07
2017-07-26T16:57:22.225Z,62.58
2017-07-26T16:59:50.155Z,62.30
2017-07-26T17:02:17.925Z,61.59
2017-07-26T17:04:45.783Z,61.71
2017-07-26T17:07:13.724Z,61.94
2017-07-26T17:09:41.563Z,63.15
2017-07-26T17:12:09.491Z,62.38
2017-07-26T17:14:37.340Z,61.85
2017-07-26T17:17:05.235Z,62.52
2017-07-26T17:19:33.015Z,62.39
2017-07-26T17:22:00.884Z,63.20
2017-07-26T17:24:28.825Z,62.48
2017-07-26T17:26:56.657Z,63.79
2017-07-26T17:29:24.393Z,63.85
2017-07-26T17:31:52.308Z,63.06
2017-07-26T17:34:20.153Z,63.35
2017-07-26T17:36:47.945Z,63.98
2017-07-26T17:39:15.831Z,65.27
2017-07-26T17:41:43.696Z,64.70
2017-07-26T17:44:11.577Z,64.77
2017-07-26T17:46:39.396Z,65.85
2017-07-26T17:49:07.237Z,68.40
2017-07-26T17:51:35.068Z,67.41
2017-07-26T17:54:02.849Z,67.61
2017-07-26T17:56:30.685Z,66.56
2017-07-26T17:58:58.456Z,66.08
2017-07-26T18:01:26.307Z,65.67
2017-07-26T18:03:54.008Z,64.45
2017-07-26T18:06:21.835Z,61.53
2017-07-26T18:08:49.657Z,58.85
2017-07-26T18:11:17.451Z,58.05
2017-07-26T18:13:45.314Z,56.77
2017-07-26T18:16:13.115Z,54.58
2017-07-26T18:18:40.983Z,53.95
2017-07-26T18:21:08.790Z,55.29
2017-07-26T18:23:36.572Z,54.81
2017-07-26T18:26:04.415Z,54.41
2017-07-26T18:28:32.206Z,53.54
2017-07-26T18:31:00.118Z,53.70
2017-07-26T18:33:27.920Z,54.45
2017-07-26T18:35:55.764Z,55.33
2017-07-26T18:38:23.589Z,57.46
2017-07-26T18:40:51.474Z,58.47
2017-07-26T18:43:19.311Z,57.80
2017-07-26T18:45:47.099Z,59.71
2017-07-26T18:48:14.962Z,62.47
2017-07-26T18:50:42.747Z,65.56
2017-07-26T18:53:10.582Z,68.39
2017-07-26T18:55:38.378Z,70.02
2017-07-26T18:58:06.273Z,70.85
2017-07-26T19:00:34.068Z,73.44
2017-07-26T19:03:01.770Z,75.71
2017-07-26T19:05:29.638Z,76.58
2017-07-26T19:07:57.413Z,78.29
2017-07-26T19:10:25.337Z,79.69
2017-07-26T19:12:53.128Z,80.31
2017-07-26T19:15:20.893Z,81.51
2017-07-26T19:17:48.696Z,82.24
2017-07-26T19:20:16.576Z,83.06
2017-07-26T19:22:44.385Z,83.86
2017-07-26T19:25:12.149Z,84.84
2017-07-26T19:27:39.833Z,85.33
2017-07-26T19:30:07.620Z,85.90
2017-07-26T19:32:35.478Z,86.49
2017-07-26T19:35:03.260Z,87.08
2017-07-26T19:37:31.105Z,87.46
2017-07-26T19:39:59.953Z,87.49
2017-07-26T19:42:27.795Z,87.78
2017-07-26T19:44:55.599Z,88.32
2017-07-26T19:47:23.412Z,88.45
2017-07-26T19:49:51.153Z,88.81
2017-07-26T19:52:18.945Z,88.75
2017-07-26T19:54:46.782Z,88.80
2017-07-26T19:57:14.579Z,89.07
2017-07-26T19:59:42.416Z,89.44
2017-07-26T20:02:10.243Z,89.59
2017-07-26T20:04:38.115Z,89.97
2017-07-26T20:07:05.821Z,90.28
2017-07-26T20:09:33.589Z,90.29
2017-07-26T20:12:01.889Z,90.68
2017-07-26T20:14:29.685Z,90.51
2017-07-26T20:16:57.444Z,90.46
2017-07-26T20:19:25.226Z,90.37
2017-07-26T20:21:53.036Z,90.86
2017-07-26T20:24:20.906Z,91.24
2017-07-26T20:26:48.756Z,91.23
2017-07-26T20:29:16.547Z,91.45
2017-07-26T20:31:44.416Z,91.63
2017-07-26T20:34:12.266Z,91.35
2017-07-26T20:36:39.964Z,91.28
2017-07-26T20:39:07.750Z,91.11
2017-07-26T20:41:35.493Z,91.54
2017-07-26T20:44:03.259Z,91.90
2017-07-26T20:46:30.950Z,92.18
2017-07-26T20:48:58.840Z,91.97
2017-07-26T20:51:26.616Z,91.83
2017-07-26T20:53:54.425Z,91.87
2017-07-26T20:56:22.140Z,91.60
2017-07-26T20:58:49.886Z,91.52
2017-07-26T21:01:17.632Z,91.72
2017-07-26T21:03:45.419Z,92.08
2017-07-26T21:06:13.177Z,92.30
2017-07-26T21:08:40.870Z,92.49
2017-07-26T21:11:08.718Z,92.52
2017-07-26T21:13:36.507Z,92.39
2017-07-26T21:16:04.380Z,92.23
2017-07-26T21:18:32.151Z,92.42
2017-07-26T21:20:59.983Z,92.49
2017-07-26T21:23:27.837Z,92.27
2017-07-26T21:25:55.660Z,92.20
2017-07-26T21:28:23.551Z,92.48
2017-07-26T21:30:51.354Z,92.65
2017-07-26T21:33:19.278Z,92.62
2017-07-26T21:35:47.072Z,92.19
2017-07-26T21:38:14.927Z,91.98
2017-07-26T21:40:42.735Z,92.00
2017-07-26T21:43:10.529Z,92.04
2017-07-26T21:45:38.275Z,92.50
2017-07-26T21:48:06.089Z,92.97
2017-07-26T21:50:33.941Z,93.18
2017-07-26T21:53:01.752Z,92.81
2017-07-26T21:55:29.641Z,92.39
2017-07-26T21:57:57.454Z,91.97
2017-07-26T22:00:25.315Z,91.85
2017-07-26T22:02:53.094Z,91.86
2017-07-26T22:05:20.967Z,92.20
2017-07-26T22:07:48.787Z,92.57
2017-07-26T22:10:16.593Z,92.58
2017-07-26T22:12:44.436Z,92.63
2017-07-26T22:15:12.250Z,92.72
2017-07-26T22:17:40.009Z,92.92
2017-07-26T22:20:07.726Z,93.14
2017-07-26T22:22:35.559Z,93.36
2017-07-26T22:25:03.387Z,93.30
2017-07-26T22:27:31.210Z,92.84
2017-07-26T22:29:58.984Z,92.55
2017-07-26T22:32:26.804Z,92.26
2017-07-26T22:34:54.626Z,92.26
2017-07-26T22:37:22.408Z,92.21
2017-07-26T22:39:50.333Z,92.43
2017-07-26T22:42:18.133Z,92.75
2017-07-26T22:44:45.982Z,93.17
2017-07-26T22:47:13.760Z,93.27
2017-07-26T22:49:41.546Z,93.17
2017-07-26T22:52:09.388Z,93.03
2017-07-26T22:54:37.165Z,93.00
2017-07-26T22:57:04.984Z,92.85
2017-07-26T22:59:32.749Z,92.81
2017-07-26T23:02:00.576Z,92.81
2017-07-26T23:04:28.344Z,92.86
2017-07-26T23:06:56.180Z,93.03
2017-07-26T23:09:23.960Z,92.78
2017-07-26T23:11:51.718Z,92.53
2017-07-26T23:14:19.546Z,92.54
2017-07-26T23:16:47.343Z,92.65
2017-07-26T23:19:15.187Z,92.77
2017-07-26T23:21:42.990Z,92.83
2017-07-26T23:24:10.818Z,93.13
2017-07-26T23:26:38.592Z,93.51
2017-07-26T23:29:06.477Z,93.71
2017-07-26T23:31:34.334Z,93.82
2017-07-26T23:34:02.111Z,94.01
2017-07-26T23:36:29.938Z,93.86
2017-07-26T23:38:57.712Z,93.65
2017-07-26T23:41:25.520Z,93.34
2017-07-26T23:43:53.304Z,93.24
2017-07-26T23:46:21.157Z,93.09
2017-07-26T23:48:48.881Z,93.09
2017-07-26T23:51:16.667Z,93.14
2017-07-26T23:53:44.475Z,93.48
2017-07-26T23:56:12.243Z,93.83
2017-07-26T23:58:40.068Z,93.93
